Всё
Granny Smith Airport (Granny Smith, Western Australia) YGRS Погода
There is no TAF data available at YGRS or any nearby airports.
There is no METAR data available at YGRS. Showing METAR data for YLTN (10 mi С).
Недавняя история METAR для LVO (для YGRS данные отсутствуют)
| Date | Time (AWST) | Flight Rules | Wind Dir. | Speed | Type | Height AGL (ft) | Visibility | Temp (°C) | Temp (°F) | Dew Point (°C) | Dew Point (°F) | Rel. Humid. | Pressure | Density Altitude | Remarks |
|---|---|---|---|---|---|---|---|---|---|---|---|---|---|---|---|
| 02-май | 23:00 | n/a | 150° | 5 kt | Missing | 10° | 50° | 8° | 46° | 87% | 1023 mb | 873 ft | |||
| 02-май | 22:00 | n/a | 140° | 5 kt | Missing | 11° | 51° | 9° | 48° | 87% | 1023 mb | 993 ft | |||
| 02-май | 21:00 | n/a | 150° | 4 kt | Missing | 11° | 51° | 9° | 48° | 87% | 1022 mb | 1,023 ft | |||
| 02-май | 20:00 | n/a | 170° | 5 kt | Missing | 12° | 53° | 9° | 48° | 82% | 1022 mb | 1,143 ft | |||
| 02-май | 19:00 | n/a | 190° | 4 kt | Missing | 13° | 55° | 8° | 46° | 72% | 1022 mb | 1,263 ft | |||
| 02-май | 18:00 | n/a | 180° | 4 kt | Missing | 14° | 57° | 8° | 46° | 67% | 1021 mb | 1,412 ft | |||
| 02-май | 17:00 | n/a | 200° | 8 kt | Missing | 15° | 59° | 7° | 44° | 59% | 1021 mb | 1,532 ft | |||
| 02-май | 16:00 | n/a | 190° | 9 kt | Missing | 16° | 60° | 7° | 44° | 55% | 1021 mb | 1,652 ft | |||
| 02-май | 15:00 | n/a | 180° | 9 kt | Missing | 16° | 60° | 7° | 44° | 55% | 1021 mb | 1,652 ft | |||
| 02-май | 14:00 | n/a | 170° | 7 kt | Missing | 16° | 60° | 8° | 46° | 59% | 1021 mb | 1,652 ft | |||
| 02-май | 13:00 | n/a | 200° | 6 kt | Missing | 15° | 59° | 8° | 46° | 63% | 1021 mb | 1,532 ft | |||
| 02-май | 12:00 | n/a | 190° | 6 kt | Missing | 14° | 57° | 8° | 46° | 67% | 1022 mb | 1,383 ft | |||
| 02-май | 11:00 | n/a | 170° | 8 kt | Missing | 12° | 53° | 7° | 44° | 71% | 1023 mb | 1,113 ft | |||
| 02-май | 10:00 | n/a | 160° | 8 kt | Missing | 11° | 51° | 7° | 44° | 76% | 1023 mb | 993 ft | |||
| 02-май | 09:00 | n/a | 180° | 7 kt | Missing | 11° | 51° | 8° | 46° | 82% | 1023 mb | 993 ft | |||
| 02-май | 08:00 | n/a | 190° | 9 kt | Missing | 9° | 48° | 7° | 44° | 87% | 1022 mb | 783 ft | |||
| 02-май | 07:00 | n/a | 210° | 5 kt | Missing | 7° | 44° | 6° | 42° | 93% | 1022 mb | 543 ft | |||
| 02-май | 06:00 | n/a | 220° | 5 kt | Missing | 7° | 44° | 5° | 41° | 87% | 1021 mb | 572 ft | |||
| 02-май | 05:00 | n/a | 220° | 6 kt | Missing | 7° | 44° | 5° | 41° | 87% | 1021 mb | 572 ft | |||
| 02-май | 04:00 | n/a | 230° | 4 kt | Missing | 7° | 44° | 5° | 41° | 87% | 1021 mb | 572 ft | |||
| 02-май | 03:00 | n/a | 210° | 4 kt | Missing | 8° | 46° | 5° | 41° | 81% | 1021 mb | 692 ft | |||
| 02-май | 02:00 | n/a | 190° | 2 kt | Missing | 8° | 46° | 5° | 41° | 81% | 1021 mb | 692 ft | |||
| 02-май | 01:00 | n/a | 200° | 6 kt | Missing | 9° | 48° | 5° | 41° | 76% | 1021 mb | 812 ft | |||
| 02-май | 00:00 | n/a | 190° | 5 kt | Missing | 9° | 48° | 5° | 41° | 76% | 1021 mb | 812 ft |
Вход
| Ваш браузер не поддерживается.. обновите веб-браузер |
